Windcrest, Texas
Current Conditions -  °F | °C
As of 1:58 PM on Thursday 29 Jan 2015 (Local Time) from KRND Reporting Station
Clear Clear  
Wind Chill: 72°   Ceiling: Unl
Heat Index: 72°   Visibility: 10mi
Dew Point: 55°   Wind: 5mph
Humidity: 55%   Direction: 160°SSE
Pressure: 30.21"   Gusts: NA
Location:  29.5172°N, 98.362°W
Report Text: KRND 291958Z AUTO 16004KT 10SM CLR 22/13 A3021 RMK AO2 SLP226 T02210127
Loading
Personal Weather Stations






























Interactive Weather Map New forecast layout! Learn more

10-Day Weather Forecast

Advertisements
Track Severe Weather on mobile